createdAt,value
2023-05-04T00:00:08.589Z,12.70
2023-05-04T00:02:10.424Z,12.54
2023-05-04T00:04:12.760Z,12.51
2023-05-04T00:06:15.203Z,12.46
2023-05-04T00:08:17.776Z,12.50
2023-05-04T00:10:19.907Z,12.57
2023-05-04T00:12:21.726Z,12.50
2023-05-04T00:14:23.492Z,12.56
2023-05-04T00:16:26.162Z,12.61
2023-05-04T00:18:27.889Z,12.51
2023-05-04T00:20:29.583Z,12.24
2023-05-04T00:22:31.600Z,12.43
2023-05-04T00:24:33.531Z,12.50
2023-05-04T00:26:37.565Z,12.55
2023-05-04T00:28:39.531Z,12.42
2023-05-04T00:30:41.566Z,12.22
2023-05-04T00:32:43.698Z,12.25
2023-05-04T00:34:45.712Z,12.41
2023-05-04T00:36:47.446Z,12.43
2023-05-04T00:38:51.874Z,12.31
2023-05-04T00:40:53.744Z,12.35
2023-05-04T00:42:55.724Z,12.35
2023-05-04T00:44:57.511Z,12.29
2023-05-04T00:46:59.423Z,12.38
2023-05-04T00:49:02.467Z,12.23
2023-05-04T00:51:04.781Z,12.33
2023-05-04T00:53:10.810Z,12.24
2023-05-04T00:55:14.572Z,12.33
2023-05-04T00:57:17.420Z,12.27
2023-05-04T00:59:19.996Z,12.22
2023-05-04T01:01:22.485Z,12.24
2023-05-04T01:03:26.259Z,12.34
2023-05-04T01:05:34.756Z,12.31
2023-05-04T01:07:56.794Z,12.10
2023-05-04T01:10:04.082Z,12.22
2023-05-04T01:12:18.242Z,12.14
2023-05-04T01:14:22.278Z,12.26
2023-05-04T01:16:24.086Z,12.22
2023-05-04T01:18:26.392Z,12.25
2023-05-04T01:20:28.525Z,12.29
2023-05-04T01:22:32.623Z,12.17
2023-05-04T01:24:34.660Z,12.25
2023-05-04T01:26:41.807Z,12.27
2023-05-04T01:28:59.698Z,12.35
2023-05-04T01:31:02.818Z,12.17
2023-05-04T01:33:04.931Z,12.19
2023-05-04T01:35:08.179Z,12.15
2023-05-04T01:37:10.516Z,12.19
2023-05-04T01:39:12.279Z,12.21
2023-05-04T01:41:14.015Z,12.26
2023-05-04T01:43:15.754Z,12.07
2023-05-04T01:45:17.499Z,12.20
2023-05-04T01:47:19.228Z,12.27
2023-05-04T01:49:20.948Z,11.93
2023-05-04T01:51:22.673Z,12.09
2023-05-04T01:53:24.632Z,12.12
2023-05-04T01:55:26.460Z,12.00
2023-05-04T01:57:28.440Z,12.02
2023-05-04T01:59:30.618Z,12.08
2023-05-04T02:01:32.337Z,11.97
2023-05-04T02:03:34.167Z,12.00
2023-05-04T02:05:36.319Z,12.11
2023-05-04T02:07:38.145Z,12.07
2023-05-04T02:09:39.975Z,11.99
2023-05-04T02:11:43.400Z,12.02
2023-05-04T02:13:45.155Z,12.11
2023-05-04T02:15:49.462Z,12.06
2023-05-04T02:17:51.378Z,12.26
2023-05-04T02:19:53.163Z,12.18
2023-05-04T02:21:54.861Z,12.25
2023-05-04T02:23:56.627Z,12.14
2023-05-04T02:25:58.399Z,12.17
2023-05-04T02:28:00.212Z,12.28
2023-05-04T02:30:01.995Z,12.27
2023-05-04T02:32:04.117Z,12.30
2023-05-04T02:34:06.137Z,12.18
2023-05-04T02:36:10.903Z,12.25
2023-05-04T02:38:12.634Z,12.31
2023-05-04T02:40:14.446Z,12.25
2023-05-04T02:42:16.440Z,12.21
2023-05-04T02:44:18.132Z,12.22
2023-05-04T02:46:20.255Z,12.33
2023-05-04T02:48:22.063Z,12.33
2023-05-04T02:50:23.888Z,12.25
2023-05-04T02:52:25.695Z,12.27
2023-05-04T02:54:27.556Z,12.26
2023-05-04T02:56:29.252Z,12.30
2023-05-04T02:58:31.028Z,12.29
2023-05-04T03:00:32.845Z,12.28
2023-05-04T03:02:34.937Z,12.27
2023-05-04T03:04:37.116Z,12.34
2023-05-04T03:06:39.338Z,12.28
2023-05-04T03:08:41.592Z,12.26
2023-05-04T03:10:43.701Z,12.27
2023-05-04T03:12:45.659Z,12.02
2023-05-04T03:14:47.410Z,12.13
2023-05-04T03:16:49.459Z,12.16
2023-05-04T03:21:10.914Z,12.16
2023-05-04T03:23:12.622Z,12.22
2023-05-04T03:25:14.497Z,12.17
2023-05-04T03:27:16.356Z,12.24
2023-05-04T03:29:18.268Z,12.20
2023-05-04T03:31:20.053Z,12.26
2023-05-04T03:33:21.829Z,12.20
2023-05-04T03:35:24.889Z,12.13
2023-05-04T03:37:27.147Z,11.92
2023-05-04T03:39:28.929Z,12.12
2023-05-04T03:41:30.828Z,12.15
2023-05-04T03:43:32.850Z,12.08
2023-05-04T03:45:34.652Z,12.16
2023-05-04T03:47:36.491Z,12.21
2023-05-04T03:49:38.224Z,12.23
2023-05-04T03:51:40.172Z,12.19
2023-05-04T03:53:43.420Z,12.01
2023-05-04T03:55:46.535Z,12.16
2023-05-04T03:57:48.207Z,12.18
2023-05-04T03:59:50.920Z,12.17
2023-05-04T04:01:53.490Z,12.20
2023-05-04T04:03:55.533Z,12.07
2023-05-04T04:05:57.755Z,11.99
2023-05-04T04:07:59.590Z,12.12
2023-05-04T04:10:01.345Z,12.03
2023-05-04T04:12:03.256Z,12.05
2023-05-04T04:14:08.164Z,12.14
2023-05-04T04:16:09.981Z,11.87
2023-05-04T04:18:11.752Z,12.15
2023-05-04T04:20:14.036Z,11.99
2023-05-04T04:22:15.796Z,12.05
2023-05-04T04:24:17.508Z,12.15
2023-05-04T04:26:20.512Z,12.14
2023-05-04T04:28:22.238Z,12.15
2023-05-04T04:30:23.980Z,12.02
2023-05-04T04:32:25.798Z,12.06
2023-05-04T04:34:27.557Z,12.10
2023-05-04T04:36:29.587Z,12.20
2023-05-04T04:38:31.509Z,11.95
2023-05-04T04:40:33.303Z,11.94
2023-05-04T04:42:35.075Z,11.95
2023-05-04T04:44:37.550Z,12.13
2023-05-04T04:46:39.296Z,12.13
2023-05-04T04:48:41.459Z,12.16
2023-05-04T04:50:43.177Z,12.23
2023-05-04T04:52:45.945Z,12.23
2023-05-04T04:54:47.606Z,12.25
2023-05-04T04:56:49.393Z,12.16
2023-05-04T04:58:52.068Z,12.26
2023-05-04T05:00:58.489Z,12.26
2023-05-04T05:03:03.346Z,12.29
2023-05-04T05:05:06.025Z,12.32
2023-05-04T05:07:09.034Z,12.29
2023-05-04T05:09:11.846Z,12.31
2023-05-04T05:11:13.555Z,12.43
2023-05-04T05:13:15.331Z,12.39
2023-05-04T05:15:17.277Z,12.41
2023-05-04T05:17:20.208Z,12.52
2023-05-04T05:19:22.106Z,12.56
2023-05-04T05:21:24.002Z,12.65
2023-05-04T05:23:25.685Z,12.71
2023-05-04T05:25:28.060Z,12.57
2023-05-04T05:27:29.926Z,12.62
2023-05-04T05:29:31.713Z,12.74
2023-05-04T05:31:33.714Z,12.80
2023-05-04T05:33:35.551Z,12.82
2023-05-04T05:35:37.275Z,12.69
2023-05-04T05:37:39.089Z,12.71
2023-05-04T05:39:42.772Z,12.79
2023-05-04T05:41:47.056Z,12.61
2023-05-04T05:43:48.754Z,12.74
2023-05-04T05:45:50.676Z,12.81
2023-05-04T05:47:52.559Z,12.67
2023-05-04T05:49:54.708Z,12.82
2023-05-04T05:51:56.687Z,12.92
2023-05-04T05:54:04.001Z,12.86
2023-05-04T05:56:06.529Z,12.86
2023-05-04T05:58:08.773Z,12.92
2023-05-04T06:00:12.788Z,12.93
2023-05-04T06:02:17.586Z,12.98
2023-05-04T06:04:19.646Z,13.11
2023-05-04T06:06:21.546Z,13.12
2023-05-04T06:08:23.338Z,13.11
2023-05-04T06:10:25.258Z,13.17
2023-05-04T06:12:27.096Z,13.09
2023-05-04T06:14:29.011Z,13.23
2023-05-04T06:16:30.902Z,13.30
2023-05-04T06:18:33.011Z,13.15
2023-05-04T06:20:35.083Z,13.23
2023-05-04T06:22:36.971Z,13.29
2023-05-04T06:24:38.857Z,13.36
2023-05-04T06:26:40.839Z,13.44
2023-05-04T06:28:42.829Z,13.49
2023-05-04T06:30:45.206Z,13.47
2023-05-04T06:32:47.307Z,13.56
2023-05-04T06:34:52.979Z,13.68
2023-05-04T06:36:55.231Z,13.77
2023-05-04T06:38:58.379Z,13.88
2023-05-04T06:41:00.286Z,13.91
2023-05-04T06:43:04.633Z,13.73
2023-05-04T06:45:07.454Z,13.86
2023-05-04T06:47:09.432Z,14.04
2023-05-04T06:49:12.425Z,13.84
2023-05-04T06:51:14.644Z,14.02
2023-05-04T06:53:19.785Z,14.15
2023-05-04T06:55:21.833Z,14.16
2023-05-04T06:57:23.907Z,14.01
2023-05-04T06:59:26.375Z,14.13
2023-05-04T07:01:28.631Z,14.18
2023-05-04T07:03:30.905Z,14.23
2023-05-04T07:05:38.680Z,13.84
2023-05-04T07:07:40.773Z,14.12
2023-05-04T07:09:44.094Z,14.25
2023-05-04T07:11:46.589Z,14.29
2023-05-04T07:13:48.842Z,14.32
2023-05-04T07:15:53.404Z,14.44
2023-05-04T07:17:55.413Z,14.40
2023-05-04T07:19:57.509Z,14.61
2023-05-04T07:22:00.568Z,14.62
2023-05-04T07:24:02.849Z,14.66
2023-05-04T07:26:05.322Z,14.90
2023-05-04T07:28:07.426Z,14.93
2023-05-04T07:30:09.735Z,14.91
2023-05-04T07:32:11.891Z,14.92
2023-05-04T07:34:13.945Z,15.04
2023-05-04T07:36:15.989Z,15.15
2023-05-04T07:38:17.914Z,15.13
2023-05-04T07:40:20.446Z,14.97
2023-05-04T07:42:23.672Z,14.94
2023-05-04T07:44:25.647Z,15.24
2023-05-04T07:46:27.490Z,14.98
2023-05-04T07:48:29.333Z,15.07
2023-05-04T07:50:31.566Z,15.04
2023-05-04T07:52:33.531Z,14.94
2023-05-04T07:54:36.531Z,15.09
2023-05-04T07:56:38.839Z,15.11
2023-05-04T07:58:41.687Z,14.79
2023-05-04T08:00:43.742Z,14.96
2023-05-04T08:02:46.338Z,15.04
2023-05-04T08:04:48.516Z,15.12
2023-05-04T08:06:51.044Z,15.14
2023-05-04T08:08:53.129Z,15.26
2023-05-04T08:11:02.025Z,15.10
2023-05-04T08:13:10.527Z,15.28
2023-05-04T08:15:12.735Z,15.38
2023-05-04T08:17:14.584Z,15.37
2023-05-04T08:19:16.447Z,15.39
2023-05-04T08:21:18.658Z,15.52
2023-05-04T08:23:20.629Z,15.53
2023-05-04T08:25:22.893Z,15.22
2023-05-04T08:27:24.750Z,15.27
2023-05-04T08:29:26.723Z,15.45
2023-05-04T08:31:28.739Z,15.56
2023-05-04T08:33:33.669Z,15.52
2023-05-04T08:35:35.837Z,15.42
2023-05-04T08:37:38.159Z,15.55
2023-05-04T08:39:41.966Z,15.80
2023-05-04T08:41:44.519Z,15.85
2023-05-04T08:43:46.919Z,15.80
2023-05-04T08:45:49.856Z,15.79
2023-05-04T08:47:52.208Z,15.65
2023-05-04T08:49:57.359Z,15.87
2023-05-04T08:52:00.733Z,15.97
2023-05-04T08:54:07.352Z,16.13
2023-05-04T08:56:12.573Z,16.23
2023-05-04T08:58:17.576Z,16.30
2023-05-04T09:00:20.772Z,16.29
2023-05-04T09:02:24.425Z,16.34
2023-05-04T09:04:29.225Z,16.48
2023-05-04T09:06:32.210Z,16.52
2023-05-04T09:08:34.732Z,16.51
2023-05-04T09:10:37.045Z,16.66
2023-05-04T09:12:39.069Z,16.83
2023-05-04T09:14:41.635Z,16.95
2023-05-04T09:16:46.932Z,16.98
2023-05-04T09:18:49.255Z,17.00
2023-05-04T09:20:53.738Z,17.20
2023-05-04T09:23:08.218Z,17.27
2023-05-04T09:25:12.458Z,17.42
2023-05-04T09:27:18.415Z,17.55
2023-05-04T09:29:22.293Z,17.68
2023-05-04T09:31:25.456Z,17.71
2023-05-04T09:33:28.155Z,17.77
2023-05-04T09:35:33.632Z,17.97
2023-05-04T09:37:45.816Z,18.04
2023-05-04T09:40:00.364Z,18.15
2023-05-04T09:42:02.891Z,18.35
2023-05-04T09:44:05.508Z,18.33
2023-05-04T09:46:08.991Z,18.42
2023-05-04T09:48:22.436Z,18.41
2023-05-04T09:50:26.787Z,18.36
2023-05-04T09:52:32.478Z,18.52
2023-05-04T09:54:36.503Z,18.40
2023-05-04T09:56:49.990Z,18.50
2023-05-04T09:58:53.157Z,18.70
2023-05-04T10:00:55.511Z,18.82
2023-05-04T10:02:58.209Z,18.87
2023-05-04T10:05:04.498Z,18.90
2023-05-04T10:07:07.321Z,18.98
2023-05-04T10:09:10.374Z,19.02
2023-05-04T10:11:18.979Z,19.13
2023-05-04T10:13:21.284Z,19.38
2023-05-04T10:15:25.281Z,19.52
2023-05-04T10:17:46.732Z,19.63
2023-05-04T10:20:20.821Z,19.68
2023-05-04T10:22:32.925Z,19.53
2023-05-04T10:24:36.726Z,19.52
2023-05-04T10:26:59.929Z,19.78
2023-05-04T10:29:12.557Z,19.81
2023-05-04T10:31:14.952Z,19.93
2023-05-04T10:33:17.135Z,20.10
2023-05-04T10:35:20.388Z,20.08
2023-05-04T10:37:23.020Z,20.30
2023-05-04T10:39:33.745Z,20.51
2023-05-04T10:41:35.769Z,20.59
2023-05-04T10:43:38.246Z,20.74
2023-05-04T10:45:42.296Z,20.96
2023-05-04T10:47:44.610Z,21.11
2023-05-04T10:49:47.326Z,21.21
2023-05-04T10:51:49.900Z,21.23
2023-05-04T10:53:53.187Z,21.36
2023-05-04T10:55:55.249Z,21.26
2023-05-04T10:57:58.371Z,21.37
2023-05-04T11:00:04.655Z,21.20
2023-05-04T11:02:07.885Z,21.21
2023-05-04T11:04:20.331Z,21.38
2023-05-04T11:06:24.371Z,21.75
2023-05-04T11:08:27.677Z,21.79
2023-05-04T11:10:29.955Z,21.89
2023-05-04T11:12:33.341Z,21.83
2023-05-04T11:14:41.534Z,21.69
2023-05-04T11:16:43.891Z,21.30
2023-05-04T11:18:46.092Z,21.23
2023-05-04T11:20:48.254Z,21.51
2023-05-04T11:22:51.152Z,21.42
2023-05-04T11:24:54.972Z,21.11
2023-05-04T11:26:58.667Z,21.01
2023-05-04T11:29:00.976Z,20.66
2023-05-04T11:31:19.922Z,20.22
2023-05-04T11:33:22.180Z,20.28
2023-05-04T11:35:25.273Z,20.26
2023-05-04T11:37:29.674Z,20.41
2023-05-04T11:39:33.742Z,20.37
2023-05-04T11:41:36.754Z,20.29
2023-05-04T11:43:42.503Z,20.30
2023-05-04T11:45:48.271Z,20.32
2023-05-04T11:47:51.866Z,20.39
2023-05-04T11:50:10.192Z,20.37
2023-05-04T11:52:12.656Z,20.26
2023-05-04T11:54:22.665Z,20.32
2023-05-04T11:56:25.189Z,20.36
2023-05-04T11:58:28.041Z,20.36
2023-05-04T12:00:40.887Z,20.37
2023-05-04T12:02:43.449Z,20.32
2023-05-04T12:04:45.615Z,20.54
2023-05-04T12:06:47.929Z,20.67
2023-05-04T12:08:50.194Z,20.60
2023-05-04T12:11:25.831Z,20.81
2023-05-04T12:13:28.494Z,21.00
2023-05-04T12:15:32.970Z,21.09
2023-05-04T12:17:44.319Z,20.95
2023-05-04T12:19:57.457Z,21.11
2023-05-04T12:21:59.931Z,20.77
2023-05-04T12:24:02.654Z,21.08
2023-05-04T12:26:05.261Z,21.00
2023-05-04T12:28:08.034Z,20.58
2023-05-04T12:30:11.293Z,20.47
2023-05-04T12:32:13.485Z,20.51
2023-05-04T12:34:15.941Z,20.28
2023-05-04T12:36:18.976Z,20.19
2023-05-04T12:38:21.344Z,20.34
2023-05-04T12:40:28.634Z,20.60
2023-05-04T12:42:32.209Z,20.66
2023-05-04T12:44:34.817Z,20.98
2023-05-04T12:46:37.710Z,21.14
2023-05-04T12:48:43.085Z,21.16
2023-05-04T12:50:46.201Z,21.01
2023-05-04T12:52:48.986Z,21.00
2023-05-04T12:54:51.369Z,20.94
2023-05-04T12:56:53.695Z,20.73
2023-05-04T12:58:56.891Z,20.76
2023-05-04T13:01:00.106Z,20.75
2023-05-04T13:03:04.018Z,20.79
2023-05-04T13:05:08.274Z,20.77
2023-05-04T13:07:10.906Z,20.71
2023-05-04T13:09:14.204Z,20.81
2023-05-04T13:11:19.509Z,20.71
2023-05-04T13:13:26.563Z,20.47
2023-05-04T13:15:29.057Z,20.55
2023-05-04T13:17:34.275Z,20.58
2023-05-04T13:19:37.124Z,20.61
2023-05-04T13:21:39.506Z,20.63
2023-05-04T13:23:41.615Z,20.50
2023-05-04T13:25:48.576Z,20.16
2023-05-04T13:27:53.752Z,19.84
2023-05-04T13:30:01.315Z,20.01
2023-05-04T13:32:04.004Z,19.95
2023-05-04T13:34:06.497Z,20.17
2023-05-04T13:36:09.033Z,20.03
2023-05-04T13:38:11.615Z,19.79
2023-05-04T13:40:15.791Z,19.62
2023-05-04T13:42:18.340Z,19.40
2023-05-04T13:44:20.826Z,19.37
2023-05-04T13:46:23.401Z,19.55
2023-05-04T13:48:28.559Z,19.52
2023-05-04T13:50:32.254Z,19.46
2023-05-04T13:52:34.753Z,19.50
2023-05-04T13:54:37.825Z,19.54
2023-05-04T13:56:39.942Z,19.62
2023-05-04T13:58:51.509Z,19.61
2023-05-04T14:01:10.806Z,19.63
2023-05-04T14:03:13.604Z,19.57
2023-05-04T14:05:16.176Z,19.47
2023-05-04T14:07:18.786Z,19.66
2023-05-04T14:09:21.262Z,19.26
2023-05-04T14:11:23.539Z,19.51
2023-05-04T14:13:26.094Z,19.69
2023-05-04T14:15:28.337Z,19.68
2023-05-04T14:17:30.752Z,19.59
2023-05-04T14:19:32.985Z,19.40
2023-05-04T14:21:36.248Z,19.36
2023-05-04T14:23:38.588Z,19.19
2023-05-04T14:25:42.656Z,18.96
2023-05-04T14:27:45.049Z,18.98
2023-05-04T14:30:00.182Z,18.77
2023-05-04T14:32:04.743Z,18.81
2023-05-04T14:34:07.189Z,18.69
2023-05-04T14:36:11.151Z,18.92
2023-05-04T14:38:13.820Z,18.96
2023-05-04T14:40:15.995Z,19.46
2023-05-04T14:42:18.150Z,19.43
2023-05-04T14:44:20.735Z,19.57
2023-05-04T14:46:22.983Z,19.83
2023-05-04T14:48:28.068Z,19.95
2023-05-04T14:50:38.688Z,19.95
2023-05-04T14:52:43.746Z,19.94
2023-05-04T14:54:46.016Z,20.23
2023-05-04T14:56:48.428Z,20.41
2023-05-04T14:58:50.743Z,20.57
2023-05-04T15:00:54.330Z,20.64
2023-05-04T15:02:56.586Z,20.65
2023-05-04T15:05:01.320Z,20.78
2023-05-04T15:07:04.886Z,20.56
2023-05-04T15:09:07.392Z,20.57
2023-05-04T15:11:10.034Z,20.58
2023-05-04T15:13:16.255Z,20.71
2023-05-04T15:15:19.476Z,20.82
2023-05-04T15:17:21.674Z,21.23
2023-05-04T15:19:25.489Z,21.10
2023-05-04T15:21:28.192Z,21.19
2023-05-04T15:23:30.470Z,21.45
2023-05-04T15:25:32.759Z,21.31
2023-05-04T15:27:35.400Z,21.17
2023-05-04T15:29:39.533Z,21.36
2023-05-04T15:32:08.078Z,20.99
2023-05-04T15:37:35.891Z,20.60
2023-05-04T15:39:38.693Z,20.14
2023-05-04T15:41:42.828Z,20.25
2023-05-04T15:43:45.392Z,20.25
2023-05-04T15:45:47.947Z,20.06
2023-05-04T15:47:51.435Z,20.17
2023-05-04T15:49:53.943Z,20.24
2023-05-04T15:51:56.684Z,20.35
2023-05-04T15:53:59.486Z,20.31
2023-05-04T15:56:05.006Z,20.46
2023-05-04T15:58:08.437Z,20.57
2023-05-04T16:00:11.944Z,20.64
2023-05-04T16:02:14.487Z,20.84
2023-05-04T16:04:17.459Z,21.03
2023-05-04T16:06:20.650Z,21.07
2023-05-04T16:08:24.067Z,21.10
2023-05-04T16:10:26.523Z,20.86
2023-05-04T16:12:29.306Z,20.88
2023-05-04T16:14:32.222Z,20.98
2023-05-04T16:16:34.809Z,21.09
2023-05-04T16:18:37.412Z,21.02
2023-05-04T16:20:40.135Z,21.08
2023-05-04T16:22:42.717Z,20.95
2023-05-04T16:24:45.504Z,20.81
2023-05-04T16:26:50.245Z,20.63
2023-05-04T16:28:53.142Z,20.63
2023-05-04T16:30:56.387Z,20.51
2023-05-04T16:32:59.520Z,20.41
2023-05-04T16:35:02.324Z,20.42
2023-05-04T16:37:04.758Z,20.56
2023-05-04T16:39:07.729Z,20.58
2023-05-04T16:41:10.452Z,20.45
2023-05-04T16:43:13.324Z,20.62
2023-05-04T16:45:16.766Z,20.71
2023-05-04T16:47:19.329Z,20.75
2023-05-04T16:49:22.357Z,20.90
2023-05-04T16:51:25.198Z,20.98
2023-05-04T16:53:28.384Z,20.93
2023-05-04T16:55:30.997Z,20.93
2023-05-04T16:57:34.076Z,21.02
2023-05-04T16:59:37.076Z,20.86
2023-05-04T17:01:39.926Z,20.95
2023-05-04T17:03:42.598Z,21.19
2023-05-04T17:05:45.409Z,20.94
2023-05-04T17:07:48.196Z,20.94
2023-05-04T17:09:50.925Z,21.00
2023-05-04T17:11:55.709Z,20.92
2023-05-04T17:13:59.549Z,21.13
2023-05-04T17:16:02.621Z,21.19
2023-05-04T17:18:05.431Z,21.11
2023-05-04T17:20:09.748Z,20.99
2023-05-04T17:22:12.582Z,20.96
2023-05-04T17:24:15.831Z,20.81
2023-05-04T17:26:18.447Z,20.96
2023-05-04T17:28:20.855Z,20.91
2023-05-04T17:30:24.252Z,20.79
2023-05-04T17:32:27.327Z,20.77
2023-05-04T17:34:29.964Z,20.81
2023-05-04T17:36:32.992Z,20.67
2023-05-04T17:38:35.549Z,20.71
2023-05-04T17:40:38.199Z,20.72
2023-05-04T17:42:41.013Z,20.68
2023-05-04T17:44:43.984Z,20.29
2023-05-04T17:46:47.804Z,20.40
2023-05-04T17:48:50.720Z,20.40
2023-05-04T17:50:53.926Z,20.34
2023-05-04T17:52:56.702Z,20.29
2023-05-04T17:54:59.317Z,20.36
2023-05-04T17:57:01.892Z,20.49
2023-05-04T17:59:04.483Z,20.17
2023-05-04T18:01:07.571Z,20.10
2023-05-04T18:03:11.019Z,19.93
2023-05-04T18:05:13.704Z,19.89
2023-05-04T18:07:16.447Z,19.87
2023-05-04T18:09:20.356Z,19.84
2023-05-04T18:11:22.910Z,19.78
2023-05-04T18:13:25.478Z,19.93
2023-05-04T18:15:28.096Z,20.12
2023-05-04T18:17:31.051Z,19.96
2023-05-04T18:19:34.630Z,20.06
2023-05-04T18:21:37.693Z,20.01
2023-05-04T18:23:40.005Z,19.67
2023-05-04T18:25:42.516Z,19.55
2023-05-04T18:27:44.890Z,19.80
2023-05-04T18:29:49.074Z,19.80
2023-05-04T18:31:51.397Z,19.70
2023-05-04T18:33:53.647Z,19.51
2023-05-04T18:35:55.724Z,19.29
2023-05-04T18:37:58.195Z,19.38
2023-05-04T18:40:00.993Z,19.62
2023-05-04T18:42:03.560Z,19.56
2023-05-04T18:44:06.225Z,19.52
2023-05-04T18:46:08.875Z,19.63
2023-05-04T18:48:11.412Z,19.35
2023-05-04T18:50:13.716Z,19.37
2023-05-04T18:52:16.251Z,19.36
2023-05-04T18:54:18.671Z,19.15
2023-05-04T18:56:20.997Z,19.18
2023-05-04T18:58:23.306Z,19.14
2023-05-04T19:00:25.918Z,19.15
2023-05-04T19:02:30.275Z,19.00
2023-05-04T19:04:33.051Z,18.81
2023-05-04T19:06:35.218Z,18.81
2023-05-04T19:08:37.393Z,18.88
2023-05-04T19:10:39.700Z,18.90
2023-05-04T19:12:41.875Z,18.89
2023-05-04T19:14:44.344Z,18.60
2023-05-04T19:16:46.584Z,18.75
2023-05-04T19:18:48.938Z,18.69
2023-05-04T19:20:51.467Z,18.72
2023-05-04T19:22:55.672Z,18.62
2023-05-04T19:24:57.773Z,18.71
2023-05-04T19:27:00.956Z,18.60
2023-05-04T19:29:03.783Z,18.64
2023-05-04T19:31:06.594Z,18.59
2023-05-04T19:33:09.078Z,18.71
2023-05-04T19:35:11.391Z,18.61
2023-05-04T19:37:13.785Z,18.55
2023-05-04T19:39:17.164Z,18.57
2023-05-04T19:41:19.483Z,18.65
2023-05-04T19:43:24.410Z,18.63
2023-05-04T19:45:26.780Z,18.65
2023-05-04T19:47:29.270Z,18.70
2023-05-04T19:49:31.481Z,18.73
2023-05-04T19:51:34.081Z,18.55
2023-05-04T19:53:36.880Z,18.56
2023-05-04T19:55:38.956Z,18.49
2023-05-04T19:57:41.272Z,18.52
2023-05-04T19:59:46.118Z,18.48
2023-05-04T20:01:49.082Z,18.48
2023-05-04T20:03:51.348Z,18.28
2023-05-04T20:05:56.178Z,18.29
2023-05-04T20:07:58.337Z,18.26
2023-05-04T20:10:00.656Z,18.24
2023-05-04T20:12:03.438Z,18.33
2023-05-04T20:14:06.048Z,18.24
2023-05-04T20:16:08.636Z,18.10
2023-05-04T20:18:10.821Z,18.24
2023-05-04T20:20:19.178Z,18.11
2023-05-04T20:22:21.610Z,18.13
2023-05-04T20:24:23.824Z,18.05
2023-05-04T20:26:26.084Z,18.04
2023-05-04T20:28:28.411Z,17.99
2023-05-04T20:30:30.528Z,18.13
2023-05-04T20:32:33.033Z,18.07
2023-05-04T20:34:36.140Z,17.96
2023-05-04T20:36:38.317Z,17.98
2023-05-04T20:38:40.462Z,17.92
2023-05-04T20:40:42.515Z,17.85
2023-05-04T20:42:44.696Z,17.93
2023-05-04T20:44:47.078Z,17.78
2023-05-04T20:46:49.310Z,17.83
2023-05-04T20:48:51.576Z,17.72
2023-05-04T20:51:02.774Z,17.71
2023-05-04T20:53:15.749Z,17.71
2023-05-04T20:55:18.042Z,17.72
2023-05-04T20:57:20.461Z,17.48
2023-05-04T20:59:22.565Z,17.48
2023-05-04T21:01:24.743Z,17.60
2023-05-04T21:03:26.993Z,17.56
2023-05-04T21:05:29.138Z,17.32
2023-05-04T21:07:31.600Z,17.41
2023-05-04T21:09:33.721Z,17.28
2023-05-04T21:11:35.707Z,17.47
2023-05-04T21:13:37.705Z,17.35
2023-05-04T21:15:39.813Z,17.48
2023-05-04T21:17:42.029Z,17.42
2023-05-04T21:19:44.185Z,17.35
2023-05-04T21:21:46.248Z,17.34
2023-05-04T21:23:48.339Z,17.21
2023-05-04T21:25:50.367Z,17.21
2023-05-04T21:27:52.414Z,17.32
2023-05-04T21:29:54.477Z,17.33
2023-05-04T21:31:57.688Z,17.32
2023-05-04T21:33:59.881Z,17.31
2023-05-04T21:36:08.211Z,17.26
2023-05-04T21:38:10.262Z,17.17
2023-05-04T21:40:12.518Z,17.18
2023-05-04T21:42:14.632Z,17.13
2023-05-04T21:44:16.663Z,17.06
2023-05-04T21:46:18.799Z,17.18
2023-05-04T21:48:20.933Z,17.27
2023-05-04T21:50:23.038Z,17.27
2023-05-04T21:52:24.980Z,17.03
2023-05-04T21:54:26.969Z,17.07
2023-05-04T21:56:29.126Z,16.92
2023-05-04T21:58:31.077Z,17.07
2023-05-04T22:00:33.377Z,17.21
2023-05-04T22:02:35.555Z,17.08
2023-05-04T22:04:37.705Z,17.13
2023-05-04T22:06:39.905Z,16.96
2023-05-04T22:08:42.004Z,16.95
2023-05-04T22:10:43.990Z,16.92
2023-05-04T22:12:46.109Z,16.93
2023-05-04T22:14:48.238Z,16.96
2023-05-04T22:16:50.407Z,16.89
2023-05-04T22:18:52.670Z,16.89
2023-05-04T22:20:54.651Z,16.89
2023-05-04T22:22:56.818Z,16.63
2023-05-04T22:24:58.961Z,16.77
2023-05-04T22:27:01.038Z,16.64
2023-05-04T22:29:03.841Z,16.60
2023-05-04T22:31:06.208Z,16.68
2023-05-04T22:33:08.485Z,16.63
2023-05-04T22:35:10.947Z,16.72
2023-05-04T22:37:12.900Z,16.73
2023-05-04T22:39:15.934Z,16.79
2023-05-04T22:41:18.242Z,16.87
2023-05-04T22:43:20.460Z,16.81
2023-05-04T22:45:22.563Z,16.53
2023-05-04T22:47:24.837Z,16.58
2023-05-04T22:49:26.775Z,16.59
2023-05-04T22:51:28.881Z,16.56
2023-05-04T22:53:30.989Z,16.55
2023-05-04T22:55:33.315Z,16.46
2023-05-04T22:57:35.586Z,16.41
2023-05-04T22:59:37.728Z,16.30
2023-05-04T23:01:43.592Z,16.24
2023-05-04T23:03:46.535Z,16.15
2023-05-04T23:05:48.919Z,16.27
2023-05-04T23:07:52.564Z,16.29
2023-05-04T23:09:54.597Z,16.24
2023-05-04T23:11:56.633Z,16.14
2023-05-04T23:13:58.634Z,15.97
2023-05-04T23:16:00.828Z,16.00
2023-05-04T23:18:02.856Z,16.01
2023-05-04T23:20:08.220Z,16.02
2023-05-04T23:22:10.716Z,15.90
2023-05-04T23:24:13.017Z,15.95
2023-05-04T23:26:16.395Z,16.07
2023-05-04T23:28:18.506Z,15.91
2023-05-04T23:30:20.537Z,15.88
2023-05-04T23:32:22.622Z,15.90
2023-05-04T23:34:24.743Z,16.02
2023-05-04T23:36:27.764Z,15.97
2023-05-04T23:38:29.719Z,15.95
2023-05-04T23:40:31.906Z,15.79
2023-05-04T23:42:33.857Z,15.80
2023-05-04T23:44:36.245Z,15.69
2023-05-04T23:46:38.373Z,15.51
2023-05-04T23:48:40.450Z,15.58
2023-05-04T23:50:52.832Z,15.76
2023-05-04T23:52:54.828Z,15.74
2023-05-04T23:54:56.746Z,15.71
2023-05-04T23:56:59.384Z,15.74
2023-05-04T23:59:01.486Z,15.86
